sensor_id;sensor_type;location;lat;lon;timestamp;noise_LAeq;noise_LA_min;noise_LA_max;noise_LA01;noise_LA95
43938;Laerm;71382;47.750;10.226;2023-10-08T00:00:47;32.97;29.17;45.23;;
43938;Laerm;71382;47.750;10.226;2023-10-08T00:03:19;35.34;29.22;50.09;;
43938;Laerm;71382;47.750;10.226;2023-10-08T00:05:46;30.17;29.18;38.66;;
43938;Laerm;71382;47.750;10.226;2023-10-08T00:08:12;32.04;29.15;42.24;;
43938;Laerm;71382;47.750;10.226;2023-10-08T00:10:40;32.28;29.17;44.64;;
43938;Laerm;71382;47.750;10.226;2023-10-08T00:13:07;31.63;29.17;50.69;;
43938;Laerm;71382;47.750;10.226;2023-10-08T00:15:37;33.41;29.24;46.89;;
43938;Laerm;71382;47.750;10.226;2023-10-08T00:18:06;30.20;29.24;33.74;;
43938;Laerm;71382;47.750;10.226;2023-10-08T00:20:32;29.76;29.12;30.70;;
43938;Laerm;71382;47.750;10.226;2023-10-08T00:23:09;34.25;29.13;48.10;;
43938;Laerm;71382;47.750;10.226;2023-10-08T00:25:35;30.04;29.21;32.71;;
43938;Laerm;71382;47.750;10.226;2023-10-08T00:28:08;29.73;29.12;30.92;;
43938;Laerm;71382;47.750;10.226;2023-10-08T00:30:38;29.75;29.10;31.61;;
43938;Laerm;71382;47.750;10.226;2023-10-08T00:33:04;29.73;29.05;31.15;;
43938;Laerm;71382;47.750;10.226;2023-10-08T00:35:30;29.70;29.07;30.72;;
43938;Laerm;71382;47.750;10.226;2023-10-08T00:37:56;29.85;29.08;31.38;;
43938;Laerm;71382;47.750;10.226;2023-10-08T00:40:35;29.71;29.08;31.50;;
43938;Laerm;71382;47.750;10.226;2023-10-08T00:43:02;29.75;29.11;30.99;;
43938;Laerm;71382;47.750;10.226;2023-10-08T00:45:29;29.65;29.01;30.27;;
43938;Laerm;71382;47.750;10.226;2023-10-08T00:47:56;30.14;28.99;40.21;;
43938;Laerm;71382;47.750;10.226;2023-10-08T00:50:22;29.64;29.07;30.20;;
43938;Laerm;71382;47.750;10.226;2023-10-08T00:52:56;29.71;29.09;33.59;;
43938;Laerm;71382;47.750;10.226;2023-10-08T00:55:25;29.65;29.03;30.31;;
43938;Laerm;71382;47.750;10.226;2023-10-08T00:57:57;29.72;29.02;32.66;;
43938;Laerm;71382;47.750;10.226;2023-10-08T01:00:24;29.70;29.06;30.31;;
43938;Laerm;71382;47.750;10.226;2023-10-08T01:02:57;32.24;29.15;43.97;;
43938;Laerm;71382;47.750;10.226;2023-10-08T01:05:26;30.78;29.24;42.54;;
43938;Laerm;71382;47.750;10.226;2023-10-08T01:08:10;30.96;29.31;47.06;;
43938;Laerm;71382;47.750;10.226;2023-10-08T01:10:38;31.01;29.04;42.35;;
43938;Laerm;71382;47.750;10.226;2023-10-08T01:13:05;30.04;29.19;36.90;;
43938;Laerm;71382;47.750;10.226;2023-10-08T01:15:36;31.21;29.13;46.05;;
43938;Laerm;71382;47.750;10.226;2023-10-08T01:18:03;30.03;29.09;40.94;;
43938;Laerm;71382;47.750;10.226;2023-10-08T01:20:30;30.64;29.21;42.08;;
43938;Laerm;71382;47.750;10.226;2023-10-08T01:25:35;34.34;29.14;44.87;;
43938;Laerm;71382;47.750;10.226;2023-10-08T01:28:01;30.02;29.02;39.03;;
43938;Laerm;71382;47.750;10.226;2023-10-08T01:30:34;30.33;29.05;38.47;;
43938;Laerm;71382;47.750;10.226;2023-10-08T01:33:06;32.11;29.40;51.97;;
43938;Laerm;71382;47.750;10.226;2023-10-08T01:35:36;35.33;29.33;55.64;;
43938;Laerm;71382;47.750;10.226;2023-10-08T01:38:02;36.23;29.50;50.16;;
43938;Laerm;71382;47.750;10.226;2023-10-08T01:40:29;39.82;29.63;54.35;;
43938;Laerm;71382;47.750;10.226;2023-10-08T01:42:56;32.48;29.44;49.34;;
43938;Laerm;71382;47.750;10.226;2023-10-08T01:45:30;31.06;29.63;42.20;;
43938;Laerm;71382;47.750;10.226;2023-10-08T01:47:57;33.69;29.48;48.82;;
43938;Laerm;71382;47.750;10.226;2023-10-08T01:50:23;35.39;29.50;53.57;;
43938;Laerm;71382;47.750;10.226;2023-10-08T01:52:54;30.72;29.38;42.59;;
43938;Laerm;71382;47.750;10.226;2023-10-08T01:55:20;30.25;29.49;34.42;;
43938;Laerm;71382;47.750;10.226;2023-10-08T01:57:48;32.33;29.26;51.14;;
43938;Laerm;71382;47.750;10.226;2023-10-08T02:00:14;31.07;29.08;50.02;;
43938;Laerm;71382;47.750;10.226;2023-10-08T02:02:46;30.15;29.20;39.74;;
43938;Laerm;71382;47.750;10.226;2023-10-08T02:05:11;31.33;29.12;47.45;;
43938;Laerm;71382;47.750;10.226;2023-10-08T02:07:40;29.88;29.16;38.19;;
43938;Laerm;71382;47.750;10.226;2023-10-08T02:10:06;29.85;29.07;38.50;;
43938;Laerm;71382;47.750;10.226;2023-10-08T02:12:32;30.32;28.93;39.65;;
43938;Laerm;71382;47.750;10.226;2023-10-08T02:14:58;29.90;29.00;39.11;;
43938;Laerm;71382;47.750;10.226;2023-10-08T02:17:23;33.68;29.09;53.77;;
43938;Laerm;71382;47.750;10.226;2023-10-08T02:19:49;29.78;28.94;34.60;;
43938;Laerm;71382;47.750;10.226;2023-10-08T02:22:15;29.82;29.15;38.88;;
43938;Laerm;71382;47.750;10.226;2023-10-08T02:24:40;29.87;28.97;34.56;;
43938;Laerm;71382;47.750;10.226;2023-10-08T02:27:06;31.55;28.96;48.56;;
43938;Laerm;71382;47.750;10.226;2023-10-08T02:29:33;29.96;29.28;37.35;;
43938;Laerm;71382;47.750;10.226;2023-10-08T02:31:59;29.89;29.10;30.92;;
43938;Laerm;71382;47.750;10.226;2023-10-08T02:34:25;30.60;29.32;42.80;;
43938;Laerm;71382;47.750;10.226;2023-10-08T02:36:50;30.07;29.23;35.71;;
43938;Laerm;71382;47.750;10.226;2023-10-08T02:39:16;33.08;29.38;44.08;;
43938;Laerm;71382;47.750;10.226;2023-10-08T02:41:47;30.10;29.39;34.98;;
43938;Laerm;71382;47.750;10.226;2023-10-08T02:44:13;30.01;29.24;30.58;;
43938;Laerm;71382;47.750;10.226;2023-10-08T02:46:40;32.76;29.35;40.53;;
43938;Laerm;71382;47.750;10.226;2023-10-08T02:49:09;30.37;29.43;35.91;;
43938;Laerm;71382;47.750;10.226;2023-10-08T02:51:42;30.24;29.47;34.70;;
43938;Laerm;71382;47.750;10.226;2023-10-08T02:54:10;30.63;29.58;39.71;;
43938;Laerm;71382;47.750;10.226;2023-10-08T02:56:44;30.62;29.51;40.98;;
43938;Laerm;71382;47.750;10.226;2023-10-08T02:59:10;31.58;29.93;41.99;;
43938;Laerm;71382;47.750;10.226;2023-10-08T03:01:38;33.29;30.08;51.36;;
43938;Laerm;71382;47.750;10.226;2023-10-08T03:04:06;33.51;30.17;51.00;;
43938;Laerm;71382;47.750;10.226;2023-10-08T03:06:44;34.65;30.50;51.78;;
43938;Laerm;71382;47.750;10.226;2023-10-08T03:09:11;36.48;30.78;55.45;;
43938;Laerm;71382;47.750;10.226;2023-10-08T03:11:39;36.48;30.76;55.55;;
43938;Laerm;71382;47.750;10.226;2023-10-08T03:14:05;42.77;30.53;61.11;;
43938;Laerm;71382;47.750;10.226;2023-10-08T03:16:40;35.63;30.53;53.95;;
43938;Laerm;71382;47.750;10.226;2023-10-08T03:19:06;38.49;30.98;52.02;;
43938;Laerm;71382;47.750;10.226;2023-10-08T03:21:34;40.26;30.80;53.43;;
43938;Laerm;71382;47.750;10.226;2023-10-08T03:24:02;38.58;31.11;52.45;;
43938;Laerm;71382;47.750;10.226;2023-10-08T03:26:38;40.81;31.03;65.08;;
43938;Laerm;71382;47.750;10.226;2023-10-08T03:29:05;35.98;30.81;55.08;;
43938;Laerm;71382;47.750;10.226;2023-10-08T03:31:41;35.55;30.82;51.00;;
43938;Laerm;71382;47.750;10.226;2023-10-08T03:34:15;36.81;30.86;53.48;;
43938;Laerm;71382;47.750;10.226;2023-10-08T03:36:44;40.37;31.06;59.35;;
43938;Laerm;71382;47.750;10.226;2023-10-08T03:39:16;38.54;31.09;57.44;;
43938;Laerm;71382;47.750;10.226;2023-10-08T03:41:46;41.12;31.53;58.95;;
43938;Laerm;71382;47.750;10.226;2023-10-08T03:44:33;40.15;31.48;59.91;;
43938;Laerm;71382;47.750;10.226;2023-10-08T03:47:03;44.06;32.91;62.74;;
43938;Laerm;71382;47.750;10.226;2023-10-08T03:49:36;40.67;32.31;57.39;;
43938;Laerm;71382;47.750;10.226;2023-10-08T03:52:10;43.16;32.80;61.76;;
43938;Laerm;71382;47.750;10.226;2023-10-08T03:54:36;38.48;31.62;59.23;;
43938;Laerm;71382;47.750;10.226;2023-10-08T03:57:08;40.77;31.99;60.17;;
43938;Laerm;71382;47.750;10.226;2023-10-08T03:59:40;44.75;32.29;63.85;;
43938;Laerm;71382;47.750;10.226;2023-10-08T04:02:07;44.26;32.21;65.31;;
43938;Laerm;71382;47.750;10.226;2023-10-08T04:04:42;41.13;32.44;57.28;;
43938;Laerm;71382;47.750;10.226;2023-10-08T04:07:21;45.05;32.03;65.15;;
43938;Laerm;71382;47.750;10.226;2023-10-08T04:09:50;38.57;31.51;58.01;;
43938;Laerm;71382;47.750;10.226;2023-10-08T04:12:24;42.21;32.59;61.72;;
43938;Laerm;71382;47.750;10.226;2023-10-08T04:14:52;38.37;32.07;55.16;;
43938;Laerm;71382;47.750;10.226;2023-10-08T04:17:21;40.89;31.66;61.87;;
43938;Laerm;71382;47.750;10.226;2023-10-08T04:19:48;38.94;31.93;58.17;;
43938;Laerm;71382;47.750;10.226;2023-10-08T04:22:14;42.35;32.03;64.95;;
43938;Laerm;71382;47.750;10.226;2023-10-08T04:24:43;43.09;32.00;66.52;;
43938;Laerm;71382;47.750;10.226;2023-10-08T04:27:09;45.43;32.04;63.97;;
43938;Laerm;71382;47.750;10.226;2023-10-08T04:29:35;44.84;31.57;66.80;;
43938;Laerm;71382;47.750;10.226;2023-10-08T04:32:03;40.27;31.38;63.36;;
43938;Laerm;71382;47.750;10.226;2023-10-08T04:34:37;41.68;31.52;64.02;;
43938;Laerm;71382;47.750;10.226;2023-10-08T04:37:03;45.36;31.99;68.91;;
43938;Laerm;71382;47.750;10.226;2023-10-08T04:39:37;40.47;31.82;62.34;;
43938;Laerm;71382;47.750;10.226;2023-10-08T04:42:05;38.70;31.20;63.41;;
43938;Laerm;71382;47.750;10.226;2023-10-08T04:44:37;39.09;31.30;59.55;;
43938;Laerm;71382;47.750;10.226;2023-10-08T04:47:05;38.54;31.18;54.97;;
43938;Laerm;71382;47.750;10.226;2023-10-08T04:49:32;42.11;31.68;60.80;;
43938;Laerm;71382;47.750;10.226;2023-10-08T04:54:28;42.11;31.86;59.70;;
43938;Laerm;71382;47.750;10.226;2023-10-08T04:57:00;39.37;32.08;56.85;;
43938;Laerm;71382;47.750;10.226;2023-10-08T04:59:29;38.11;31.94;56.76;;
43938;Laerm;71382;47.750;10.226;2023-10-08T05:02:02;43.26;32.07;65.01;;
43938;Laerm;71382;47.750;10.226;2023-10-08T05:05:03;42.37;31.24;61.49;;
43938;Laerm;71382;47.750;10.226;2023-10-08T05:07:35;39.62;31.22;61.21;;
43938;Laerm;71382;47.750;10.226;2023-10-08T05:10:09;38.36;30.82;55.97;;
43938;Laerm;71382;47.750;10.226;2023-10-08T05:12:35;35.75;31.18;55.27;;
43938;Laerm;71382;47.750;10.226;2023-10-08T05:15:11;33.77;31.19;49.02;;
43938;Laerm;71382;47.750;10.226;2023-10-08T05:17:39;35.97;31.84;46.54;;
43938;Laerm;71382;47.750;10.226;2023-10-08T05:20:17;47.22;33.05;57.62;;
43938;Laerm;71382;47.750;10.226;2023-10-08T05:23:14;38.23;31.50;61.50;;
43938;Laerm;71382;47.750;10.226;2023-10-08T05:26:06;42.76;31.70;68.07;;
43938;Laerm;71382;47.750;10.226;2023-10-08T05:28:35;36.74;32.69;52.52;;
43938;Laerm;71382;47.750;10.226;2023-10-08T05:31:11;38.33;31.75;53.87;;
43938;Laerm;71382;47.750;10.226;2023-10-08T05:33:42;35.65;31.87;49.40;;
43938;Laerm;71382;47.750;10.226;2023-10-08T05:36:26;35.07;31.37;49.35;;
43938;Laerm;71382;47.750;10.226;2023-10-08T05:39:10;42.13;32.02;61.16;;
43938;Laerm;71382;47.750;10.226;2023-10-08T05:41:54;35.94;31.76;46.58;;
43938;Laerm;71382;47.750;10.226;2023-10-08T05:44:40;38.00;31.95;49.04;;
43938;Laerm;71382;47.750;10.226;2023-10-08T05:47:06;38.86;31.97;55.27;;
43938;Laerm;71382;47.750;10.226;2023-10-08T05:49:38;38.83;32.28;58.23;;
43938;Laerm;71382;47.750;10.226;2023-10-08T05:52:04;41.70;31.41;55.97;;
43938;Laerm;71382;47.750;10.226;2023-10-08T05:54:30;38.15;31.54;49.91;;
43938;Laerm;71382;47.750;10.226;2023-10-08T06:04:56;38.22;31.69;50.69;;
43938;Laerm;71382;47.750;10.226;2023-10-08T06:10:18;38.32;32.49;53.50;;
43938;Laerm;71382;47.750;10.226;2023-10-08T06:13:06;40.92;31.98;61.11;;
43938;Laerm;71382;47.750;10.226;2023-10-08T06:18:13;40.73;31.98;56.29;;
43938;Laerm;71382;47.750;10.226;2023-10-08T06:20:40;40.27;32.54;57.21;;
43938;Laerm;71382;47.750;10.226;2023-10-08T06:23:17;41.03;31.78;59.21;;
43938;Laerm;71382;47.750;10.226;2023-10-08T06:25:51;36.32;31.48;54.70;;
43938;Laerm;71382;47.750;10.226;2023-10-08T06:28:31;39.97;31.52;56.36;;
43938;Laerm;71382;47.750;10.226;2023-10-08T06:31:00;36.59;32.40;49.61;;
43938;Laerm;71382;47.750;10.226;2023-10-08T06:33:27;36.88;32.27;52.71;;
43938;Laerm;71382;47.750;10.226;2023-10-08T06:36:02;40.04;32.45;58.10;;
43938;Laerm;71382;47.750;10.226;2023-10-08T06:38:37;38.00;31.92;56.65;;
43938;Laerm;71382;47.750;10.226;2023-10-08T06:41:06;40.22;32.18;56.77;;
43938;Laerm;71382;47.750;10.226;2023-10-08T06:43:41;39.14;31.73;52.07;;
43938;Laerm;71382;47.750;10.226;2023-10-08T06:46:12;37.28;32.28;53.43;;
43938;Laerm;71382;47.750;10.226;2023-10-08T06:48:38;37.36;31.44;53.54;;
43938;Laerm;71382;47.750;10.226;2023-10-08T06:51:08;39.63;32.11;54.06;;
43938;Laerm;71382;47.750;10.226;2023-10-08T06:53:38;37.60;31.16;56.80;;
43938;Laerm;71382;47.750;10.226;2023-10-08T06:56:04;37.90;31.18;47.27;;
43938;Laerm;71382;47.750;10.226;2023-10-08T06:58:30;36.78;31.42;46.95;;
43938;Laerm;71382;47.750;10.226;2023-10-08T07:00:59;40.79;31.31;52.52;;
43938;Laerm;71382;47.750;10.226;2023-10-08T07:03:30;33.88;31.01;51.10;;
43938;Laerm;71382;47.750;10.226;2023-10-08T07:05:56;38.22;31.35;53.21;;
43938;Laerm;71382;47.750;10.226;2023-10-08T07:08:28;35.63;30.48;46.81;;
43938;Laerm;71382;47.750;10.226;2023-10-08T07:10:57;38.60;30.87;59.28;;
43938;Laerm;71382;47.750;10.226;2023-10-08T07:13:24;37.70;30.59;49.13;;
43938;Laerm;71382;47.750;10.226;2023-10-08T07:15:51;37.93;31.20;48.72;;
43938;Laerm;71382;47.750;10.226;2023-10-08T07:18:17;38.46;31.01;49.24;;
43938;Laerm;71382;47.750;10.226;2023-10-08T07:20:53;39.52;31.35;52.63;;
43938;Laerm;71382;47.750;10.226;2023-10-08T07:23:22;38.97;31.00;51.02;;
43938;Laerm;71382;47.750;10.226;2023-10-08T07:25:58;38.16;31.24;47.62;;
43938;Laerm;71382;47.750;10.226;2023-10-08T07:28:44;41.45;31.61;49.55;;
43938;Laerm;71382;47.750;10.226;2023-10-08T07:31:18;35.74;31.27;46.10;;
43938;Laerm;71382;47.750;10.226;2023-10-08T07:33:46;40.12;31.33;53.11;;
43938;Laerm;71382;47.750;10.226;2023-10-08T07:36:12;36.85;31.46;50.22;;
43938;Laerm;71382;47.750;10.226;2023-10-08T07:38:40;38.52;30.67;50.61;;
43938;Laerm;71382;47.750;10.226;2023-10-08T07:41:10;40.68;30.61;53.48;;
43938;Laerm;71382;47.750;10.226;2023-10-08T07:43:40;35.21;30.70;48.89;;
43938;Laerm;71382;47.750;10.226;2023-10-08T07:46:09;39.89;31.06;51.69;;
43938;Laerm;71382;47.750;10.226;2023-10-08T07:48:35;40.38;31.61;51.97;;
43938;Laerm;71382;47.750;10.226;2023-10-08T07:51:00;39.97;31.33;59.17;;
43938;Laerm;71382;47.750;10.226;2023-10-08T07:53:27;39.40;30.66;49.27;;
43938;Laerm;71382;47.750;10.226;2023-10-08T07:56:05;37.93;30.23;62.27;;
43938;Laerm;71382;47.750;10.226;2023-10-08T07:58:34;36.13;29.87;47.80;;
43938;Laerm;71382;47.750;10.226;2023-10-08T08:01:07;38.71;29.98;54.55;;
43938;Laerm;71382;47.750;10.226;2023-10-08T08:03:34;41.34;31.36;49.80;;
43938;Laerm;71382;47.750;10.226;2023-10-08T08:06:02;37.61;30.31;49.01;;
43938;Laerm;71382;47.750;10.226;2023-10-08T08:08:32;45.03;31.16;59.95;;
43938;Laerm;71382;47.750;10.226;2023-10-08T08:11:02;38.47;30.52;48.07;;
43938;Laerm;71382;47.750;10.226;2023-10-08T08:13:33;41.65;30.87;55.36;;
43938;Laerm;71382;47.750;10.226;2023-10-08T08:15:59;40.24;32.25;59.08;;
43938;Laerm;71382;47.750;10.226;2023-10-08T08:18:37;41.11;31.23;53.62;;
43938;Laerm;71382;47.750;10.226;2023-10-08T08:21:03;51.71;31.42;63.85;;
43938;Laerm;71382;47.750;10.226;2023-10-08T08:23:29;41.26;30.71;54.71;;
43938;Laerm;71382;47.750;10.226;2023-10-08T08:25:55;38.65;31.34;57.22;;
43938;Laerm;71382;47.750;10.226;2023-10-08T08:28:32;40.46;31.89;52.24;;
43938;Laerm;71382;47.750;10.226;2023-10-08T08:31:04;38.91;31.14;53.62;;
43938;Laerm;71382;47.750;10.226;2023-10-08T08:33:32;46.35;32.17;61.51;;
43938;Laerm;71382;47.750;10.226;2023-10-08T08:36:20;41.66;31.20;53.95;;
43938;Laerm;71382;47.750;10.226;2023-10-08T08:38:49;47.90;31.81;58.08;;
43938;Laerm;71382;47.750;10.226;2023-10-08T08:41:15;43.34;31.75;55.77;;
43938;Laerm;71382;47.750;10.226;2023-10-08T08:43:47;45.49;32.64;56.50;;
43938;Laerm;71382;47.750;10.226;2023-10-08T08:46:13;50.28;38.39;67.55;;
43938;Laerm;71382;47.750;10.226;2023-10-08T08:48:44;52.83;31.01;60.09;;
43938;Laerm;71382;47.750;10.226;2023-10-08T08:51:12;38.49;31.02;54.86;;
43938;Laerm;71382;47.750;10.226;2023-10-08T08:53:38;41.94;31.95;62.06;;
43938;Laerm;71382;47.750;10.226;2023-10-08T08:56:06;43.08;31.75;56.70;;
43938;Laerm;71382;47.750;10.226;2023-10-08T08:58:32;39.06;31.65;50.43;;
43938;Laerm;71382;47.750;10.226;2023-10-08T09:00:58;46.78;33.45;59.65;;
43938;Laerm;71382;47.750;10.226;2023-10-08T09:03:24;40.38;31.67;55.57;;
43938;Laerm;71382;47.750;10.226;2023-10-08T09:05:56;42.68;31.30;61.94;;
43938;Laerm;71382;47.750;10.226;2023-10-08T09:08:22;39.28;31.36;54.78;;
43938;Laerm;71382;47.750;10.226;2023-10-08T09:10:49;45.21;31.28;59.39;;
43938;Laerm;71382;47.750;10.226;2023-10-08T09:13:21;39.35;30.82;53.62;;
43938;Laerm;71382;47.750;10.226;2023-10-08T09:15:48;39.99;31.44;54.63;;
43938;Laerm;71382;47.750;10.226;2023-10-08T09:18:14;36.25;30.39;46.93;;
43938;Laerm;71382;47.750;10.226;2023-10-08T09:20:39;43.19;30.64;60.65;;
43938;Laerm;71382;47.750;10.226;2023-10-08T09:23:09;43.28;31.31;61.58;;
43938;Laerm;71382;47.750;10.226;2023-10-08T09:25:38;46.59;31.73;61.23;;
43938;Laerm;71382;47.750;10.226;2023-10-08T09:28:05;38.61;31.09;47.42;;
43938;Laerm;71382;47.750;10.226;2023-10-08T09:30:34;42.52;31.20;55.62;;
43938;Laerm;71382;47.750;10.226;2023-10-08T09:33:06;46.29;31.11;57.63;;
43938;Laerm;71382;47.750;10.226;2023-10-08T09:35:32;40.59;31.01;49.64;;
43938;Laerm;71382;47.750;10.226;2023-10-08T09:37:59;46.58;32.99;58.16;;
43938;Laerm;71382;47.750;10.226;2023-10-08T09:40:27;44.87;31.70;61.49;;
43938;Laerm;71382;47.750;10.226;2023-10-08T09:42:53;43.22;30.90;58.91;;
43938;Laerm;71382;47.750;10.226;2023-10-08T09:45:20;40.74;30.31;49.31;;
43938;Laerm;71382;47.750;10.226;2023-10-08T09:47:49;40.88;30.32;51.14;;
43938;Laerm;71382;47.750;10.226;2023-10-08T09:50:17;39.13;30.82;55.83;;
43938;Laerm;71382;47.750;10.226;2023-10-08T09:55:33;40.24;31.19;54.86;;
43938;Laerm;71382;47.750;10.226;2023-10-08T09:57:59;43.62;31.01;56.87;;
43938;Laerm;71382;47.750;10.226;2023-10-08T10:00:26;40.84;30.98;50.76;;
43938;Laerm;71382;47.750;10.226;2023-10-08T10:02:59;45.17;32.70;60.70;;
43938;Laerm;71382;47.750;10.226;2023-10-08T10:05:30;41.68;32.19;50.60;;
43938;Laerm;71382;47.750;10.226;2023-10-08T10:07:56;46.84;32.29;60.87;;
43938;Laerm;71382;47.750;10.226;2023-10-08T10:10:25;41.76;32.41;52.98;;
43938;Laerm;71382;47.750;10.226;2023-10-08T10:12:51;43.40;32.01;62.08;;
43938;Laerm;71382;47.750;10.226;2023-10-08T10:15:20;41.04;31.44;56.17;;
43938;Laerm;71382;47.750;10.226;2023-10-08T10:17:47;42.67;32.11;54.63;;
43938;Laerm;71382;47.750;10.226;2023-10-08T10:20:14;43.51;32.57;56.32;;
43938;Laerm;71382;47.750;10.226;2023-10-08T10:22:40;39.06;33.33;48.41;;
43938;Laerm;71382;47.750;10.226;2023-10-08T10:25:08;39.79;31.93;55.12;;
43938;Laerm;71382;47.750;10.226;2023-10-08T10:27:51;42.77;32.12;57.19;;
43938;Laerm;71382;47.750;10.226;2023-10-08T10:30:31;41.77;31.59;66.00;;
43938;Laerm;71382;47.750;10.226;2023-10-08T10:33:00;46.10;31.64;63.21;;
43938;Laerm;71382;47.750;10.226;2023-10-08T10:35:25;44.44;31.48;62.72;;
43938;Laerm;71382;47.750;10.226;2023-10-08T10:37:53;39.43;31.02;52.79;;
43938;Laerm;71382;47.750;10.226;2023-10-08T10:40:21;39.43;31.50;58.07;;
43938;Laerm;71382;47.750;10.226;2023-10-08T10:42:58;42.15;31.36;59.70;;
43938;Laerm;71382;47.750;10.226;2023-10-08T10:45:28;39.66;30.97;55.94;;
43938;Laerm;71382;47.750;10.226;2023-10-08T10:48:05;39.64;31.74;54.54;;
43938;Laerm;71382;47.750;10.226;2023-10-08T10:50:46;47.83;32.42;61.41;;
43938;Laerm;71382;47.750;10.226;2023-10-08T10:53:48;40.28;32.33;52.01;;
43938;Laerm;71382;47.750;10.226;2023-10-08T10:56:23;43.97;32.63;57.26;;
43938;Laerm;71382;47.750;10.226;2023-10-08T10:59:02;42.10;32.53;60.12;;
43938;Laerm;71382;47.750;10.226;2023-10-08T11:01:41;39.19;31.30;54.51;;
43938;Laerm;71382;47.750;10.226;2023-10-08T11:04:18;41.35;30.99;57.32;;
43938;Laerm;71382;47.750;10.226;2023-10-08T11:06:45;41.02;31.77;55.59;;
43938;Laerm;71382;47.750;10.226;2023-10-08T11:09:12;38.50;30.86;49.88;;
43938;Laerm;71382;47.750;10.226;2023-10-08T11:12:01;40.42;31.81;57.02;;
43938;Laerm;71382;47.750;10.226;2023-10-08T11:14:28;43.16;31.25;56.56;;
43938;Laerm;71382;47.750;10.226;2023-10-08T11:16:53;43.43;30.84;57.13;;
43938;Laerm;71382;47.750;10.226;2023-10-08T11:19:20;40.86;30.57;51.29;;
43938;Laerm;71382;47.750;10.226;2023-10-08T11:21:49;37.98;30.74;52.96;;
43938;Laerm;71382;47.750;10.226;2023-10-08T11:24:26;41.26;30.75;56.88;;
43938;Laerm;71382;47.750;10.226;2023-10-08T11:26:52;46.14;31.10;61.20;;
43938;Laerm;71382;47.750;10.226;2023-10-08T11:29:36;40.98;30.92;52.07;;
43938;Laerm;71382;47.750;10.226;2023-10-08T11:32:04;46.18;30.29;63.75;;
43938;Laerm;71382;47.750;10.226;2023-10-08T11:34:32;39.55;30.09;57.16;;
43938;Laerm;71382;47.750;10.226;2023-10-08T11:37:07;41.14;31.02;55.52;;
43938;Laerm;71382;47.750;10.226;2023-10-08T11:39:53;40.17;30.70;57.81;;
43938;Laerm;71382;47.750;10.226;2023-10-08T11:42:23;41.23;30.51;60.17;;
43938;Laerm;71382;47.750;10.226;2023-10-08T11:44:58;43.27;31.37;55.62;;
43938;Laerm;71382;47.750;10.226;2023-10-08T11:47:42;42.94;31.08;55.59;;
43938;Laerm;71382;47.750;10.226;2023-10-08T11:50:10;44.87;31.99;59.11;;
43938;Laerm;71382;47.750;10.226;2023-10-08T11:52:36;43.66;31.65;58.06;;
43938;Laerm;71382;47.750;10.226;2023-10-08T11:55:07;49.33;31.93;60.85;;
43938;Laerm;71382;47.750;10.226;2023-10-08T11:57:33;52.17;31.07;71.01;;
43938;Laerm;71382;47.750;10.226;2023-10-08T12:00:01;44.48;30.94;61.29;;
43938;Laerm;71382;47.750;10.226;2023-10-08T12:02:42;39.96;30.71;52.20;;
43938;Laerm;71382;47.750;10.226;2023-10-08T12:05:09;42.19;31.75;58.52;;
43938;Laerm;71382;47.750;10.226;2023-10-08T12:07:45;46.46;33.68;59.36;;
43938;Laerm;71382;47.750;10.226;2023-10-08T12:10:11;43.34;31.56;60.42;;
43938;Laerm;71382;47.750;10.226;2023-10-08T12:12:36;43.50;31.70;55.87;;
43938;Laerm;71382;47.750;10.226;2023-10-08T12:15:02;41.85;31.96;58.31;;
43938;Laerm;71382;47.750;10.226;2023-10-08T12:17:29;41.50;31.50;55.19;;
43938;Laerm;71382;47.750;10.226;2023-10-08T12:20:07;48.72;32.66;64.64;;
43938;Laerm;71382;47.750;10.226;2023-10-08T12:22:51;41.27;32.55;58.86;;
43938;Laerm;71382;47.750;10.226;2023-10-08T12:25:16;48.60;31.78;65.54;;
43938;Laerm;71382;47.750;10.226;2023-10-08T12:27:42;42.92;31.39;60.67;;
43938;Laerm;71382;47.750;10.226;2023-10-08T12:30:09;41.49;31.92;54.12;;
43938;Laerm;71382;47.750;10.226;2023-10-08T12:32:36;41.44;32.15;54.56;;
43938;Laerm;71382;47.750;10.226;2023-10-08T12:35:05;44.73;31.57;62.36;;
43938;Laerm;71382;47.750;10.226;2023-10-08T12:37:40;43.17;32.35;55.62;;
43938;Laerm;71382;47.750;10.226;2023-10-08T12:40:09;43.84;32.99;61.22;;
43938;Laerm;71382;47.750;10.226;2023-10-08T12:42:53;47.90;32.99;63.83;;
43938;Laerm;71382;47.750;10.226;2023-10-08T12:45:19;40.94;31.67;50.30;;
43938;Laerm;71382;47.750;10.226;2023-10-08T12:47:51;38.40;31.90;51.28;;
43938;Laerm;71382;47.750;10.226;2023-10-08T12:50:18;51.45;31.89;67.71;;
43938;Laerm;71382;47.750;10.226;2023-10-08T12:52:57;46.15;32.44;63.60;;
43938;Laerm;71382;47.750;10.226;2023-10-08T12:55:26;41.16;31.70;57.26;;
43938;Laerm;71382;47.750;10.226;2023-10-08T12:57:55;47.78;33.61;63.49;;
43938;Laerm;71382;47.750;10.226;2023-10-08T13:00:31;39.33;31.78;51.49;;
43938;Laerm;71382;47.750;10.226;2023-10-08T13:02:57;42.75;31.75;54.15;;
43938;Laerm;71382;47.750;10.226;2023-10-08T13:05:23;40.37;31.93;57.91;;
43938;Laerm;71382;47.750;10.226;2023-10-08T13:07:56;43.21;31.79;56.09;;
43938;Laerm;71382;47.750;10.226;2023-10-08T13:10:25;46.54;32.25;60.49;;
43938;Laerm;71382;47.750;10.226;2023-10-08T13:12:51;42.19;32.24;55.92;;
43938;Laerm;71382;47.750;10.226;2023-10-08T13:15:17;43.26;32.13;53.09;;
43938;Laerm;71382;47.750;10.226;2023-10-08T13:17:43;43.70;31.39;58.32;;
43938;Laerm;71382;47.750;10.226;2023-10-08T13:20:11;39.85;31.49;54.89;;
43938;Laerm;71382;47.750;10.226;2023-10-08T13:22:38;40.26;31.19;51.68;;
43938;Laerm;71382;47.750;10.226;2023-10-08T13:25:03;41.69;31.21;53.58;;
43938;Laerm;71382;47.750;10.226;2023-10-08T13:27:30;42.30;31.54;61.89;;
43938;Laerm;71382;47.750;10.226;2023-10-08T13:29:56;43.06;31.95;57.75;;
43938;Laerm;71382;47.750;10.226;2023-10-08T13:32:21;42.70;32.17;55.96;;
43938;Laerm;71382;47.750;10.226;2023-10-08T13:34:47;41.04;32.89;57.72;;
43938;Laerm;71382;47.750;10.226;2023-10-08T13:37:14;40.37;33.88;49.63;;
43938;Laerm;71382;47.750;10.226;2023-10-08T13:39:41;40.93;32.67;50.57;;
43938;Laerm;71382;47.750;10.226;2023-10-08T13:42:06;39.51;31.55;49.42;;
43938;Laerm;71382;47.750;10.226;2023-10-08T13:44:33;43.07;31.63;56.11;;
43938;Laerm;71382;47.750;10.226;2023-10-08T13:47:00;42.70;32.33;56.52;;
43938;Laerm;71382;47.750;10.226;2023-10-08T13:49:31;40.14;33.98;48.08;;
43938;Laerm;71382;47.750;10.226;2023-10-08T13:51:57;42.13;32.70;50.44;;
43938;Laerm;71382;47.750;10.226;2023-10-08T13:54:23;39.91;31.67;52.29;;
43938;Laerm;71382;47.750;10.226;2023-10-08T13:56:55;36.83;31.52;44.83;;
43938;Laerm;71382;47.750;10.226;2023-10-08T13:59:20;43.72;31.87;56.11;;
43938;Laerm;71382;47.750;10.226;2023-10-08T14:01:50;45.04;31.88;63.60;;
43938;Laerm;71382;47.750;10.226;2023-10-08T14:04:20;39.48;31.31;48.28;;
43938;Laerm;71382;47.750;10.226;2023-10-08T14:06:52;37.52;31.05;45.81;;
43938;Laerm;71382;47.750;10.226;2023-10-08T14:09:20;37.97;30.87;47.06;;